Time;durP1;ratioP1;P1;durP2;ratioP2;P2;SDS_P1;SDS_P2;PMS_P1;PMS_P2;Temp;Humidity;BMP_temperature;BMP_pressure;BME280_temperature;BME280_humidity;BME280_pressure;Samples;Min_cycle;Max_cycle;Signal;HPM_P1;HPM_P2
2022/04/26 03:36:16;;;;;;;3.70;1.92;;;;;;;;;;5055427;28;20127;-81
2022/04/26 03:38:43;;;;;;;3.40;2.15;;;;;;;;;;5055170;28;20040;-81
2022/04/26 03:41:09;;;;;;;2.45;1.90;;;;;;;;;;5055156;28;20029;-81
2022/04/26 03:43:34;;;;;;;4.95;2.10;;;;;;;;;;5038504;28;20035;-82
2022/04/26 03:46:00;;;;;;;3.55;2.00;;;;;;;;;;5037984;28;20067;-81
2022/04/26 03:48:25;;;;;;;2.53;1.92;;;;;;;;;;5026314;28;20032;-81
2022/04/26 03:50:51;;;;;;;5.90;2.03;;;;;;;;;;5060146;28;20094;-82
2022/04/26 03:53:16;;;;;;;2.78;2.30;;;;;;;;;;5056139;28;20079;-82
2022/04/26 03:55:42;;;;;;;3.95;2.20;;;;;;;;;;5038129;28;20430;-81
2022/04/26 03:58:07;;;;;;;4.50;2.60;;;;;;;;;;5054725;28;20079;-82
2022/04/26 04:00:33;;;;;;;9.88;2.92;;;;;;;;;;5055711;28;20108;-81
2022/04/26 04:02:58;;;;;;;7.72;3.33;;;;;;;;;;5055866;28;20033;-81
2022/04/26 04:05:24;;;;;;;6.40;3.50;;;;;;;;;;5055680;28;20136;-81
2022/04/26 04:07:49;;;;;;;8.40;3.75;;;;;;;;;;5022135;28;20351;-81
2022/04/26 04:10:15;;;;;;;10.40;3.80;;;;;;;;;;5046864;28;20037;-78
2022/04/26 04:12:40;;;;;;;11.07;4.20;;;;;;;;;;5021494;28;20074;-78
2022/04/26 04:15:06;;;;;;;6.70;3.83;;;;;;;;;;5037573;28;20033;-78
2022/04/26 04:17:32;;;;;;;19.48;6.55;;;;;;;;;;5055194;28;20392;-78
2022/04/26 04:19:57;;;;;;;15.77;6.88;;;;;;;;;;5037715;28;20028;-80
2022/04/26 04:22:23;;;;;;;19.23;8.65;;;;;;;;;;5055419;28;20031;-78
2022/04/26 04:24:48;;;;;;;33.95;13.88;;;;;;;;;;5054212;28;20170;-79
2022/04/26 04:27:14;;;;;;;32.35;12.95;;;;;;;;;;5021192;28;20029;-79
2022/04/26 04:29:39;;;;;;;29.95;11.70;;;;;;;;;;5041086;28;20036;-79
2022/04/26 04:32:05;;;;;;;47.72;10.13;;;;;;;;;;5055914;28;20029;-79
2022/04/26 04:34:30;;;;;;;24.67;8.70;;;;;;;;;;5020979;28;20037;-79
2022/04/26 04:36:56;;;;;;;32.42;8.70;;;;;;;;;;5038351;28;20059;-80
2022/04/26 04:39:23;;;;;;;23.05;7.88;;;;;;;;;;5037459;28;20036;-80
2022/04/26 04:41:49;;;;;;;16.35;7.25;;;;;;;;;;5020978;28;20029;-79
2022/04/26 04:44:15;;;;;;;14.90;6.75;;;;;;;;;;5004522;28;20127;-80
2022/04/26 04:46:40;;;;;;;21.13;6.70;;;;;;;;;;5037356;28;20063;-80
2022/04/26 04:49:06;;;;;;;21.98;6.72;;;;;;;;;;5041915;28;20097;-80
2022/04/26 04:51:32;;;;;;;12.10;5.68;;;;;;;;;;5028033;28;20056;-78
2022/04/26 04:54:04;;;;;;;9.77;6.00;;;;;;;;;;5036348;28;20036;-80
2022/04/26 04:56:34;;;;;;;13.02;5.20;;;;;;;;;;5023526;28;20044;-80
2022/04/26 04:59:32;;;;;;;9.95;5.03;;;;;;;;;;5015976;28;20167;-81
2022/04/26 05:01:57;;;;;;;13.32;5.25;;;;;;;;;;5029493;28;20128;-79
2022/04/26 05:04:23;;;;;;;11.38;5.18;;;;;;;;;;5042113;28;20116;-78
2022/04/26 05:07:07;;;;;;;11.25;5.55;;;;;;;;;;5030987;28;20025;-79
2022/04/26 05:09:44;;;;;;;12.82;5.43;;;;;;;;;;5033219;28;20037;-79
2022/04/26 05:12:13;;;;;;;16.10;5.60;;;;;;;;;;5006112;28;20033;-80
2022/04/26 05:14:39;;;;;;;11.68;4.30;;;;;;;;;;5036482;28;20438;-80
2022/04/26 05:17:04;;;;;;;7.18;4.05;;;;;;;;;;5016170;28;20120;-78
2022/04/26 05:19:33;;;;;;;8.25;2.90;;;;;;;;;;5038272;28;20478;-79
2022/04/26 05:21:59;;;;;;;5.97;2.63;;;;;;;;;;5047784;28;20032;-81
2022/04/26 05:27:14;;;;;;;8.45;2.40;;;;;;;;;;5035166;28;20036;-79
2022/04/26 05:29:46;;;;;;;6.43;2.70;;;;;;;;;;5052438;28;20455;-83
2022/04/26 05:32:57;;;;;;;;;;;;;;;;;;;;;
2022/04/26 05:36:07;;;;;;;;;;;;;;;;;;;;;
2022/04/26 05:41:38;;;;;;;6.45;2.60;;;;;;;;;;5082451;22;20065;-81
2022/04/26 05:44:05;;;;;;;8.02;3.10;;;;;;;;;;5032419;28;20059;-81
2022/04/26 05:47:23;;;;;;;9.88;3.33;;;;;;;;;;5056407;28;20036;-82
2022/04/26 05:49:48;;;;;;;4.05;2.75;;;;;;;;;;5076188;28;20036;-84
2022/04/26 05:52:33;;;;;;;8.18;3.47;;;;;;;;;;5071523;28;20025;-83
2022/04/26 05:55:00;;;;;;;5.32;2.65;;;;;;;;;;5032685;28;20048;-87
2022/04/26 05:57:27;;;;;;;4.75;2.10;;;;;;;;;;5027009;28;20037;-87
2022/04/26 05:59:55;;;;;;;9.82;2.35;;;;;;;;;;5052164;28;20025;-85
2022/04/26 06:02:23;;;;;;;5.15;1.98;;;;;;;;;;5054643;28;20024;-86
2022/04/26 06:04:48;;;;;;;4.18;2.08;;;;;;;;;;5038737;28;20489;-84
2022/04/26 06:07:14;;;;;;;6.50;2.70;;;;;;;;;;5046554;28;20076;-86
2022/04/26 06:09:40;;;;;;;2.70;1.83;;;;;;;;;;5052710;28;20029;-84
2022/04/26 06:12:06;;;;;;;6.20;2.00;;;;;;;;;;5033212;28;20027;-86
2022/04/26 06:14:36;;;;;;;2.00;1.60;;;;;;;;;;5045909;28;20053;-85
2022/04/26 06:17:03;;;;;;;4.95;1.80;;;;;;;;;;5056915;28;20025;-84
2022/04/26 06:19:29;;;;;;;3.90;1.67;;;;;;;;;;5040616;28;20079;-84
2022/04/26 06:21:54;;;;;;;2.72;1.52;;;;;;;;;;5067242;28;20032;-84
2022/04/26 06:24:20;;;;;;;5.95;1.60;;;;;;;;;;5063496;28;20431;-84
2022/04/26 06:26:47;;;;;;;3.63;1.55;;;;;;;;;;5048659;28;20041;-86
2022/04/26 06:29:13;;;;;;;1.70;1.30;;;;;;;;;;5056878;28;20123;-81
2022/04/26 06:31:39;;;;;;;3.85;1.35;;;;;;;;;;5047750;28;20052;-82
2022/04/26 06:34:05;;;;;;;3.92;1.35;;;;;;;;;;5044831;28;20037;-87
2022/04/26 06:36:31;;;;;;;5.30;1.60;;;;;;;;;;5038894;28;20040;-83
2022/04/26 06:38:57;;;;;;;8.00;1.58;;;;;;;;;;5022243;28;20486;-80
2022/04/26 06:41:26;;;;;;;1.73;1.40;;;;;;;;;;5070498;28;20056;-88
2022/04/26 06:43:52;;;;;;;1.55;1.30;;;;;;;;;;5022625;28;20033;-84
2022/04/26 06:46:26;;;;;;;2.63;1.48;;;;;;;;;;5038173;28;20040;-87
2022/04/26 06:48:57;;;;;;;2.83;1.30;;;;;;;;;;5016859;28;20550;-90
2022/04/26 06:51:24;;;;;;;2.33;1.38;;;;;;;;;;5072386;28;20009;-86
2022/04/26 06:54:35;;;;;;;1.00;0.90;;;;;;;;;;5055483;28;20025;-84
2022/04/26 06:57:08;;;;;;;3.97;0.90;;;;;;;;;;5008967;28;20046;-84
2022/04/26 06:59:37;;;;;;;2.20;1.10;;;;;;;;;;5041241;28;20020;-84
2022/04/26 07:02:12;;;;;;;2.63;1.35;;;;;;;;;;5013143;28;20037;-83
2022/04/26 07:07:59;;;;;;;1.52;1.00;;;;;;;;;;5070533;22;20052;-83
2022/04/26 07:10:28;;;;;;;2.55;1.13;;;;;;;;;;5060050;28;20025;-85
2022/04/26 07:12:54;;;;;;;1.90;0.98;;;;;;;;;;5054876;28;20029;-85
2022/04/26 07:19:30;;;;;;;2.55;1.05;;;;;;;;;;4919014;29;20045;-85
2022/04/26 07:22:33;;;;;;;1.15;1.05;;;;;;;;;;4879361;29;20216;-86
2022/04/26 07:40:20;;;;;;;4.00;0.90;;;;;;;;;;5590065;22;20051;-87
2022/04/26 07:43:02;;;;;;;1.85;0.85;;;;;;;;;;5055627;28;20035;-84
2022/04/26 07:48:55;;;;;;;1.38;1.02;;;;;;;;;;5077548;28;20036;-87
2022/04/26 07:51:42;;;;;;;2.63;1.08;;;;;;;;;;5012047;28;20072;-84
2022/04/26 07:54:16;;;;;;;1.95;0.70;;;;;;;;;;5039052;28;20037;-84
2022/04/26 07:56:45;;;;;;;1.80;1.08;;;;;;;;;;5071357;28;20431;-86
2022/04/26 08:03:10;;;;;;;1.10;0.75;;;;;;;;;;5003047;28;20035;-83
2022/04/26 08:05:41;;;;;;;0.60;0.60;;;;;;;;;;5058523;28;20055;-81
2022/04/26 08:08:18;;;;;;;0.85;0.85;;;;;;;;;;5045166;28;20096;-80
2022/04/26 08:10:44;;;;;;;5.05;0.90;;;;;;;;;;5032085;28;20044;-83
2022/04/26 08:13:30;;;;;;;1.02;0.93;;;;;;;;;;5066509;28;20029;-80
2022/04/26 08:15:56;;;;;;;0.85;0.80;;;;;;;;;;5063338;28;20047;-86
2022/04/26 08:18:22;;;;;;;2.58;0.90;;;;;;;;;;5041633;28;20514;-83
2022/04/26 08:20:48;;;;;;;1.05;0.80;;;;;;;;;;5075818;28;20119;-81
2022/04/26 08:23:13;;;;;;;7.63;0.85;;;;;;;;;;5090417;28;20039;-85
2022/04/26 08:28:28;;;;;;;1.48;0.73;;;;;;;;;;5082461;28;20086;-82
2022/04/26 08:30:56;;;;;;;0.90;0.50;;;;;;;;;;5087174;28;20028;-86
2022/04/26 08:33:21;;;;;;;0.90;0.80;;;;;;;;;;5075575;28;20028;-83
2022/04/26 08:35:51;;;;;;;2.03;1.00;;;;;;;;;;5092466;28;20036;-84
2022/04/26 08:38:17;;;;;;;0.75;0.73;;;;;;;;;;5077263;28;20044;-83
2022/04/26 08:40:45;;;;;;;1.95;0.73;;;;;;;;;;5083628;28;20063;-80
2022/04/26 08:43:19;;;;;;;1.60;0.60;;;;;;;;;;5086071;28;20032;-82
2022/04/26 08:51:33;;;;;;;3.72;1.02;;;;;;;;;;5069630;28;20043;-84
2022/04/26 08:53:58;;;;;;;2.45;0.90;;;;;;;;;;5082202;28;20043;-87
2022/04/26 08:56:56;;;;;;;2.13;0.73;;;;;;;;;;5076317;28;20017;-84
2022/04/26 08:59:22;;;;;;;1.92;0.70;;;;;;;;;;5046760;28;20089;-84
2022/04/26 09:01:49;;;;;;;2.60;0.40;;;;;;;;;;5041816;28;20036;-83
2022/04/26 09:04:19;;;;;;;0.50;0.50;;;;;;;;;;5039516;28;20459;-84
2022/04/26 09:06:45;;;;;;;1.45;0.68;;;;;;;;;;5054727;28;20099;-82
2022/04/26 09:09:24;;;;;;;1.00;0.60;;;;;;;;;;5052885;28;20029;-80
2022/04/26 09:11:51;;;;;;;0.73;0.55;;;;;;;;;;5054820;28;20029;-82
2022/04/26 09:14:37;;;;;;;0.88;0.50;;;;;;;;;;5030997;28;20426;-82
2022/04/26 09:17:10;;;;;;;1.65;0.63;;;;;;;;;;5052938;28;20025;-81
2022/04/26 09:19:48;;;;;;;0.43;0.40;;;;;;;;;;5052196;28;20087;-81
2022/04/26 09:22:18;;;;;;;0.90;0.50;;;;;;;;;;5051852;28;20032;-84
2022/04/26 09:25:00;;;;;;;2.28;0.65;;;;;;;;;;5056322;28;20075;-84
2022/04/26 09:30:39;;;;;;;0.70;0.70;;;;;;;;;;5044383;28;20467;-84
2022/04/26 09:33:06;;;;;;;4.03;0.70;;;;;;;;;;5082810;28;20031;-79
2022/04/26 09:35:32;;;;;;;3.25;0.50;;;;;;;;;;5059659;28;20033;-79
2022/04/26 09:38:02;;;;;;;0.40;0.40;;;;;;;;;;5058488;28;20029;-82
2022/04/26 09:40:29;;;;;;;0.75;0.50;;;;;;;;;;5057716;28;20167;-81
2022/04/26 09:42:54;;;;;;;0.95;0.35;;;;;;;;;;5076670;28;20475;-88
2022/04/26 09:45:21;;;;;;;4.32;0.68;;;;;;;;;;5051396;28;20075;-86
2022/04/26 09:47:47;;;;;;;0.65;0.60;;;;;;;;;;5061245;28;20051;-85
2022/04/26 09:50:14;;;;;;;1.10;0.60;;;;;;;;;;5055266;28;20036;-84
2022/04/26 09:52:39;;;;;;;1.38;0.40;;;;;;;;;;5067009;28;20099;-83
2022/04/26 09:55:06;;;;;;;0.40;0.40;;;;;;;;;;5074684;28;20071;-84
2022/04/26 09:57:32;;;;;;;0.55;0.45;;;;;;;;;;5116156;28;20036;-84
2022/04/26 09:59:59;;;;;;;0.63;0.40;;;;;;;;;;5104708;28;20071;-84
2022/04/26 10:02:32;;;;;;;0.70;0.40;;;;;;;;;;5065100;28;20035;-84
2022/04/26 10:05:05;;;;;;;1.10;0.60;;;;;;;;;;5056596;28;20120;-83
2022/04/26 10:07:36;;;;;;;0.55;0.50;;;;;;;;;;5089083;28;20077;-82
2022/04/26 10:10:06;;;;;;;0.77;0.40;;;;;;;;;;5082578;28;20042;-82
2022/04/26 10:15:16;;;;;;;0.73;0.50;;;;;;;;;;5095588;28;20038;-83
2022/04/26 10:17:48;;;;;;;0.70;0.40;;;;;;;;;;5096113;28;20032;-83
2022/04/26 10:20:42;;;;;;;0.35;0.35;;;;;;;;;;5080815;28;20399;-84
2022/04/26 10:23:09;;;;;;;0.75;0.50;;;;;;;;;;5108196;28;20562;-86
2022/04/26 10:25:34;;;;;;;1.05;0.50;;;;;;;;;;5090138;28;20058;-82
2022/04/26 10:28:29;;;;;;;0.75;0.35;;;;;;;;;;5097740;28;20032;-82
2022/04/26 10:30:55;;;;;;;2.10;0.60;;;;;;;;;;5075212;28;20024;-84
2022/04/26 10:34:06;;;;;;;1.10;0.60;;;;;;;;;;5048475;28;20036;-84
2022/04/26 10:36:34;;;;;;;1.08;0.50;;;;;;;;;;5068621;28;20110;-85
2022/04/26 10:39:07;;;;;;;1.27;0.40;;;;;;;;;;5071421;28;20064;-86
2022/04/26 10:41:49;;;;;;;2.92;1.00;;;;;;;;;;5061305;28;20033;-83
2022/04/26 10:44:17;;;;;;;1.95;0.70;;;;;;;;;;5045547;28;20457;-82
2022/04/26 10:46:44;;;;;;;0.50;0.50;;;;;;;;;;5080227;28;20075;-79
2022/04/26 10:49:24;;;;;;;1.15;0.60;;;;;;;;;;5071444;28;20045;-79
2022/04/26 10:51:55;;;;;;;1.55;0.40;;;;;;;;;;5074708;28;20076;-83
2022/04/26 10:54:59;;;;;;;1.48;0.32;;;;;;;;;;5057172;28;20032;-83
2022/04/26 10:57:31;;;;;;;3.05;0.88;;;;;;;;;;5095011;28;20063;-85
2022/04/26 10:59:59;;;;;;;0.50;0.50;;;;;;;;;;5077523;28;20116;-85
2022/04/26 11:02:26;;;;;;;0.60;0.55;;;;;;;;;;5077963;28;20443;-84
2022/04/26 11:04:55;;;;;;;0.60;0.50;;;;;;;;;;5077425;28;20019;-85
2022/04/26 11:07:25;;;;;;;;;;;;;;;;;;5063117;28;20063;-83
2022/04/26 11:09:51;;;;;;;2.10;0.80;;;;;;;;;;5077218;28;20306;-81
2022/04/26 11:12:43;;;;;;;0.80;0.80;;;;;;;;;;5096353;28;20104;-82
2022/04/26 11:15:11;;;;;;;0.82;0.80;;;;;;;;;;5084340;28;20429;-84
2022/04/26 11:17:36;;;;;;;4.65;1.83;;;;;;;;;;5079667;28;20069;-84
2022/04/26 11:20:06;;;;;;;8.52;4.38;;;;;;;;;;5077763;28;20024;-84
2022/04/26 11:22:31;;;;;;;3.13;1.00;;;;;;;;;;5078392;28;20411;-84
2022/04/26 11:28:00;;;;;;;0.70;0.60;;;;;;;;;;5096672;28;20042;-84
2022/04/26 11:30:39;;;;;;;5.53;1.55;;;;;;;;;;5081615;28;20028;-84
2022/04/26 11:33:06;;;;;;;1.30;0.80;;;;;;;;;;5099303;28;20024;-84
2022/04/26 11:35:32;;;;;;;0.80;0.80;;;;;;;;;;5096627;28;20346;-80
2022/04/26 11:38:04;;;;;;;0.70;0.70;;;;;;;;;;5092868;28;20035;-80
2022/04/26 11:40:31;;;;;;;5.57;1.10;;;;;;;;;;5076578;28;20119;-80
2022/04/26 11:42:58;;;;;;;1.90;0.75;;;;;;;;;;5059762;28;20027;-80
2022/04/26 11:45:28;;;;;;;3.15;0.90;;;;;;;;;;5076486;28;20090;-80
2022/04/26 11:47:53;;;;;;;;;;;;;;;;;;5073459;28;20071;-81
2022/04/26 11:50:23;;;;;;;1.02;0.70;;;;;;;;;;5074638;28;19912;-82
2022/04/26 11:52:49;;;;;;;;;;;;;;;;;;5064301;28;20035;-81
2022/04/26 11:55:19;;;;;;;4.80;2.47;;;;;;;;;;5075637;28;20310;-80
2022/04/26 11:57:45;;;;;;;;;;;;;;;;;;5074422;28;20102;-80
2022/04/26 12:00:11;;;;;;;23.45;13.60;;;;;;;;;;5074073;28;19913;-82
2022/04/26 12:02:37;;;;;;;1.60;1.00;;;;;;;;;;5074389;28;20025;-80
2022/04/26 12:05:02;;;;;;;1.00;0.75;;;;;;;;;;5074182;28;20021;-80
2022/04/26 12:07:28;;;;;;;0.95;0.80;;;;;;;;;;5037382;28;20032;-80
2022/04/26 12:09:53;;;;;;;2.47;0.80;;;;;;;;;;5034911;28;20028;-80
2022/04/26 12:12:20;;;;;;;0.80;0.80;;;;;;;;;;5055804;28;20024;-79
2022/04/26 12:14:46;;;;;;;1.10;1.00;;;;;;;;;;5044094;28;20466;-80
2022/04/26 12:17:29;;;;;;;1.83;0.90;;;;;;;;;;5035851;28;20069;-80
2022/04/26 12:19:55;;;;;;;2.53;1.70;;;;;;;;;;5052419;28;20139;-78
2022/04/26 12:22:25;;;;;;;8.63;6.05;;;;;;;;;;5036295;28;20029;-79
2022/04/26 12:24:52;;;;;;;2.40;2.00;;;;;;;;;;5054164;28;20066;-79
2022/04/26 12:27:25;;;;;;;3.30;2.78;;;;;;;;;;5052598;28;20347;-79
2022/04/26 12:29:54;;;;;;;9.45;3.95;;;;;;;;;;5036022;28;20124;-79
2022/04/26 12:32:20;;;;;;;3.42;1.27;;;;;;;;;;5057909;28;20450;-79
2022/04/26 12:34:53;;;;;;;1.58;0.88;;;;;;;;;;5026678;28;20033;-78
2022/04/26 12:37:23;;;;;;;1.00;0.90;;;;;;;;;;5052969;28;20021;-80
2022/04/26 12:39:50;;;;;;;2.88;0.90;;;;;;;;;;5052600;28;20048;-78
2022/04/26 12:42:29;;;;;;;2.47;0.90;;;;;;;;;;5036144;28;20025;-78
2022/04/26 12:44:55;;;;;;;1.20;0.90;;;;;;;;;;5051641;28;20022;-78
2022/04/26 12:53:06;;;;;;;0.80;0.80;;;;;;;;;;5067045;28;20043;-79
2022/04/26 12:55:36;;;;;;;1.03;0.80;;;;;;;;;;5043992;28;20043;-80
2022/04/26 12:58:06;;;;;;;7.10;5.10;;;;;;;;;;5057352;28;20123;-79
2022/04/26 13:00:32;;;;;;;5.40;3.45;;;;;;;;;;5074945;28;20059;-80
2022/04/26 13:03:00;;;;;;;9.80;6.15;;;;;;;;;;5058896;28;20396;-80
2022/04/26 13:05:27;;;;;;;3.60;1.15;;;;;;;;;;5070087;28;20028;-80
2022/04/26 13:07:52;;;;;;;1.52;1.20;;;;;;;;;;5048829;28;20035;-78
2022/04/26 13:10:18;;;;;;;5.68;1.10;;;;;;;;;;5052728;28;20032;-80
2022/04/26 13:12:44;;;;;;;1.48;0.90;;;;;;;;;;5050786;28;20419;-79
2022/04/26 13:15:10;;;;;;;2.35;1.00;;;;;;;;;;5068882;28;20033;-80
2022/04/26 13:17:36;;;;;;;1.10;1.08;;;;;;;;;;5060866;28;20021;-80
2022/04/26 13:20:04;;;;;;;1.58;1.20;;;;;;;;;;5058292;28;20024;-81
2022/04/26 13:22:30;;;;;;;1.02;1.00;;;;;;;;;;5056859;28;20035;-80
2022/04/26 13:24:55;;;;;;;3.60;1.00;;;;;;;;;;5074742;28;20030;-80
2022/04/26 13:27:21;;;;;;;1.02;0.90;;;;;;;;;;5074984;28;20126;-80
2022/04/26 13:29:48;;;;;;;1.48;1.10;;;;;;;;;;5056563;28;20020;-82
2022/04/26 13:32:15;;;;;;;2.53;1.15;;;;;;;;;;5062477;28;20029;-81
2022/04/26 13:34:40;;;;;;;3.25;1.33;;;;;;;;;;5079973;28;20102;-80
2022/04/26 13:37:07;;;;;;;1.15;1.02;;;;;;;;;;5040174;28;20028;-80
2022/04/26 13:39:34;;;;;;;0.90;0.90;;;;;;;;;;5023958;28;20028;-80
2022/04/26 13:42:00;;;;;;;2.55;1.10;;;;;;;;;;5039364;28;20441;-80
2022/04/26 13:44:26;;;;;;;2.30;1.52;;;;;;;;;;5056296;28;20025;-80
2022/04/26 13:46:53;;;;;;;1.83;1.20;;;;;;;;;;5056067;28;20036;-80
2022/04/26 13:49:18;;;;;;;3.78;1.25;;;;;;;;;;5074182;28;20377;-80
2022/04/26 13:51:43;;;;;;;1.23;1.02;;;;;;;;;;5062318;28;20027;-80
2022/04/26 13:54:09;;;;;;;4.72;1.27;;;;;;;;;;5039370;28;20504;-80
2022/04/26 13:56:34;;;;;;;1.67;1.23;;;;;;;;;;5039295;28;20025;-80
2022/04/26 13:59:00;;;;;;;1.10;0.85;;;;;;;;;;5039581;28;20024;-80
2022/04/26 14:01:26;;;;;;;1.48;1.13;;;;;;;;;;5073982;28;20408;-80
2022/04/26 14:03:51;;;;;;;2.13;1.10;;;;;;;;;;5073905;28;20115;-79
2022/04/26 14:06:21;;;;;;;1.40;1.23;;;;;;;;;;5073933;28;20171;-80
2022/04/26 14:08:50;;;;;;;1.50;1.40;;;;;;;;;;5040009;28;20036;-81
2022/04/26 14:11:16;;;;;;;1.33;1.10;;;;;;;;;;5060541;28;20028;-79
2022/04/26 14:21:54;;;;;;;1.30;1.20;;;;;;;;;;5058646;28;20067;-81
2022/04/26 14:24:20;;;;;;;1.33;1.23;;;;;;;;;;5055882;28;20056;-81
2022/04/26 14:26:45;;;;;;;1.77;1.45;;;;;;;;;;5056142;28;20063;-81
2022/04/26 14:29:11;;;;;;;3.03;1.30;;;;;;;;;;5055807;28;20441;-80
2022/04/26 14:31:36;;;;;;;1.40;1.30;;;;;;;;;;5064052;28;20035;-81
2022/04/26 14:34:02;;;;;;;4.10;1.45;;;;;;;;;;5055725;28;20047;-79
2022/04/26 14:36:28;;;;;;;2.15;1.25;;;;;;;;;;5022972;28;20357;-80
2022/04/26 14:38:54;;;;;;;1.25;1.15;;;;;;;;;;5073707;28;20047;-81
2022/04/26 14:41:19;;;;;;;2.20;1.40;;;;;;;;;;5073625;28;20545;-81
2022/04/26 14:43:45;;;;;;;2.28;1.40;;;;;;;;;;5055811;28;20029;-80
2022/04/26 14:46:10;;;;;;;1.90;1.30;;;;;;;;;;5055749;28;20039;-80
2022/04/26 14:48:36;;;;;;;1.73;1.50;;;;;;;;;;5055495;28;20045;-81
2022/04/26 14:51:02;;;;;;;1.48;1.30;;;;;;;;;;5076474;28;20028;-80
2022/04/26 14:53:27;;;;;;;1.30;1.20;;;;;;;;;;5040220;28;20029;-81
2022/04/26 14:55:53;;;;;;;2.00;1.35;;;;;;;;;;5073343;28;20035;-80
2022/04/26 14:58:19;;;;;;;1.45;1.30;;;;;;;;;;5022780;28;20055;-80
2022/04/26 15:00:45;;;;;;;1.83;1.45;;;;;;;;;;5055895;28;20052;-80
2022/04/26 15:03:10;;;;;;;2.13;1.25;;;;;;;;;;5073295;28;20016;-80
2022/04/26 15:05:36;;;;;;;2.17;1.30;;;;;;;;;;5055573;28;20086;-80
2022/04/26 15:10:45;;;;;;;3.58;1.20;;;;;;;;;;5079322;28;20078;-80
2022/04/26 15:18:40;;;;;;;1.70;1.48;;;;;;;;;;5076864;28;20039;-81
2022/04/26 15:21:09;;;;;;;1.40;1.30;;;;;;;;;;5076622;28;20024;-81
2022/04/26 15:23:35;;;;;;;5.22;1.60;;;;;;;;;;5058659;28;20028;-81
2022/04/26 15:26:03;;;;;;;4.65;1.60;;;;;;;;;;5058995;28;20461;-80
2022/04/26 15:28:29;;;;;;;2.28;1.30;;;;;;;;;;5042662;28;20101;-81
2022/04/26 15:30:55;;;;;;;1.55;1.38;;;;;;;;;;5045457;28;20029;-80
2022/04/26 15:33:22;;;;;;;2.38;1.45;;;;;;;;;;5047176;28;20064;-81
2022/04/26 15:35:47;;;;;;;2.67;1.60;;;;;;;;;;5042062;28;20365;-80
2022/04/26 15:38:15;;;;;;;14.07;1.83;;;;;;;;;;5058567;28;20025;-80
2022/04/26 15:40:41;;;;;;;1.98;1.40;;;;;;;;;;5059218;28;20039;-81
2022/04/26 15:43:06;;;;;;;2.28;1.55;;;;;;;;;;5025406;28;20358;-80
2022/04/26 15:45:32;;;;;;;1.60;1.33;;;;;;;;;;5025420;28;20032;-81
2022/04/26 15:47:58;;;;;;;2.42;1.75;;;;;;;;;;5041887;28;20380;-81
2022/04/26 15:50:23;;;;;;;1.83;1.63;;;;;;;;;;5028765;28;20474;-81
2022/04/26 15:52:50;;;;;;;2.60;1.67;;;;;;;;;;5068874;28;20111;-81
2022/04/26 15:55:16;;;;;;;2.08;1.60;;;;;;;;;;5041814;28;20046;-80
2022/04/26 15:57:44;;;;;;;1.67;1.40;;;;;;;;;;5076067;28;20028;-81
2022/04/26 16:00:10;;;;;;;2.03;1.80;;;;;;;;;;5042303;28;20024;-82
2022/04/26 16:02:36;;;;;;;1.60;1.38;;;;;;;;;;5058716;28;20029;-80
2022/04/26 16:05:01;;;;;;;1.45;1.30;;;;;;;;;;5057837;28;20127;-80
2022/04/26 16:07:27;;;;;;;2.78;1.50;;;;;;;;;;5024863;28;20153;-81
2022/04/26 16:20:48;;;;;;;1.33;1.23;;;;;;;;;;5074200;28;20062;-79
2022/04/26 16:23:14;;;;;;;1.60;1.50;;;;;;;;;;5076007;28;20055;-80
2022/04/26 16:25:40;;;;;;;2.88;1.45;;;;;;;;;;5057624;28;20016;-80
2022/04/26 16:28:05;;;;;;;2.60;1.58;;;;;;;;;;5057669;28;20021;-81
2022/04/26 16:30:31;;;;;;;1.50;1.40;;;;;;;;;;5075433;28;20434;-81
2022/04/26 16:33:04;;;;;;;5.10;1.63;;;;;;;;;;5085536;28;20353;-80
2022/04/26 16:35:31;;;;;;;3.55;1.50;;;;;;;;;;5058122;28;20032;-80
2022/04/26 16:37:57;;;;;;;3.20;1.50;;;;;;;;;;5057681;28;20111;-80
2022/04/26 16:40:22;;;;;;;2.63;1.85;;;;;;;;;;5057418;28;20071;-80
2022/04/26 16:42:48;;;;;;;1.52;1.42;;;;;;;;;;5075251;28;20043;-80
2022/04/26 16:45:14;;;;;;;2.70;1.60;;;;;;;;;;5040918;28;20119;-80
2022/04/26 16:47:39;;;;;;;4.00;1.70;;;;;;;;;;5075243;28;20045;-80
2022/04/26 16:50:06;;;;;;;1.95;1.67;;;;;;;;;;5056962;28;20119;-81
2022/04/26 16:52:32;;;;;;;2.63;1.98;;;;;;;;;;5046775;28;20032;-80
2022/04/26 16:54:58;;;;;;;2.55;1.52;;;;;;;;;;5057089;28;20025;-80
2022/04/26 16:57:26;;;;;;;2.63;2.35;;;;;;;;;;5040849;28;20029;-80
2022/04/26 16:59:52;;;;;;;15.95;8.73;;;;;;;;;;5074760;28;20031;-80
2022/04/26 17:02:18;;;;;;;16.00;7.97;;;;;;;;;;5040277;28;20398;-80
2022/04/26 17:04:43;;;;;;;12.95;6.32;;;;;;;;;;5074548;28;20032;-80
2022/04/26 17:07:10;;;;;;;12.13;6.38;;;;;;;;;;5074676;28;20060;-80
2022/04/26 17:09:37;;;;;;;14.50;7.55;;;;;;;;;;5074647;28;20034;-80
2022/04/26 17:12:02;;;;;;;14.07;6.97;;;;;;;;;;5078743;28;20028;-80
2022/04/26 17:14:28;;;;;;;15.65;7.88;;;;;;;;;;5058467;28;20089;-80
2022/04/26 17:16:53;;;;;;;16.25;7.60;;;;;;;;;;5074711;28;20024;-80
2022/04/26 17:19:20;;;;;;;12.95;7.47;;;;;;;;;;5056337;28;20024;-80
2022/04/26 17:21:49;;;;;;;12.23;7.20;;;;;;;;;;5056838;28;20028;-80
2022/04/26 17:26:58;;;;;;;13.45;7.03;;;;;;;;;;5045128;28;20485;-80
2022/04/26 17:29:24;;;;;;;9.20;5.32;;;;;;;;;;5039883;28;20032;-80
2022/04/26 17:31:53;;;;;;;9.40;4.90;;;;;;;;;;5075923;28;20024;-79
2022/04/26 17:34:19;;;;;;;7.50;4.47;;;;;;;;;;5060178;28;20438;-80
2022/04/26 17:36:44;;;;;;;9.95;5.32;;;;;;;;;;5039866;28;20031;-80
2022/04/26 17:39:14;;;;;;;8.80;5.15;;;;;;;;;;5074267;28;20024;-80
2022/04/26 17:41:40;;;;;;;9.07;4.60;;;;;;;;;;5040498;28;20458;-80
2022/04/26 17:44:06;;;;;;;8.57;4.60;;;;;;;;;;5040072;28;20051;-80
2022/04/26 17:46:32;;;;;;;8.30;5.22;;;;;;;;;;5039566;28;20983;-80
2022/04/26 17:48:57;;;;;;;7.50;4.88;;;;;;;;;;5074002;28;20132;-79
2022/04/26 17:51:23;;;;;;;12.43;5.22;;;;;;;;;;5056787;28;20074;-80
2022/04/26 17:56:34;;;;;;;9.02;5.20;;;;;;;;;;5074274;28;20071;-80
2022/04/26 17:59:01;;;;;;;5.63;4.50;;;;;;;;;;5056619;28;20056;-80
2022/04/26 18:01:27;;;;;;;7.10;3.60;;;;;;;;;;5023374;28;20086;-80
2022/04/26 18:03:53;;;;;;;4.63;3.78;;;;;;;;;;5055958;28;20024;-81
2022/04/26 18:06:19;;;;;;;5.38;3.90;;;;;;;;;;5056186;28;20040;-80
2022/04/26 18:08:44;;;;;;;4.88;3.30;;;;;;;;;;5039638;28;20123;-79
2022/04/26 18:11:10;;;;;;;4.45;3.80;;;;;;;;;;5074146;28;20029;-80
2022/04/26 18:13:36;;;;;;;5.32;3.95;;;;;;;;;;5086232;28;20016;-79
2022/04/26 18:16:02;;;;;;;6.38;3.90;;;;;;;;;;5055640;28;20040;-79
2022/04/26 18:18:27;;;;;;;6.72;3.58;;;;;;;;;;5056050;28;20464;-79
2022/04/26 18:20:54;;;;;;;6.28;3.85;;;;;;;;;;5055869;28;20029;-80
2022/04/26 18:23:19;;;;;;;7.95;4.50;;;;;;;;;;5073902;28;20338;-80
2022/04/26 18:28:31;;;;;;;8.93;4.38;;;;;;;;;;5073801;28;20036;-79
2022/04/26 18:30:58;;;;;;;9.75;4.93;;;;;;;;;;5073690;28;20112;-79
2022/04/26 18:33:24;;;;;;;6.63;3.80;;;;;;;;;;5044112;28;20476;-80
2022/04/26 18:35:49;;;;;;;8.20;3.90;;;;;;;;;;5057998;28;20068;-80
2022/04/26 18:38:15;;;;;;;11.35;5.00;;;;;;;;;;5073752;28;20038;-80
2022/04/26 18:40:40;;;;;;;10.13;5.07;;;;;;;;;;5055607;28;20037;-80
2022/04/26 18:43:06;;;;;;;6.72;3.95;;;;;;;;;;5075161;28;20027;-79
2022/04/26 18:45:32;;;;;;;5.35;3.03;;;;;;;;;;5059425;28;20028;-80
2022/04/26 18:47:57;;;;;;;4.80;2.80;;;;;;;;;;5059306;28;20484;-80
2022/04/26 18:50:23;;;;;;;3.40;2.60;;;;;;;;;;5043128;28;20031;-79
2022/04/26 18:52:49;;;;;;;5.50;2.63;;;;;;;;;;5061398;28;20036;-81
2022/04/26 18:55:14;;;;;;;4.22;2.85;;;;;;;;;;5085575;28;20044;-80
2022/04/26 18:57:40;;;;;;;5.80;2.70;;;;;;;;;;5059454;28;20033;-79
2022/04/26 19:00:06;;;;;;;7.90;2.75;;;;;;;;;;5042674;28;20082;-79
2022/04/26 19:02:32;;;;;;;8.88;3.17;;;;;;;;;;5077684;28;20130;-80
2022/04/26 19:04:57;;;;;;;5.20;3.25;;;;;;;;;;5076933;28;20125;-79
2022/04/26 19:07:22;;;;;;;7.13;2.80;;;;;;;;;;5077247;28;20033;-80
2022/04/26 19:12:32;;;;;;;9.38;3.72;;;;;;;;;;5077020;28;20468;-80
2022/04/26 19:14:58;;;;;;;6.07;3.22;;;;;;;;;;5088174;28;20037;-79
2022/04/26 19:17:24;;;;;;;7.85;3.40;;;;;;;;;;5077220;28;20036;-79
2022/04/26 19:19:49;;;;;;;9.40;3.42;;;;;;;;;;5077059;28;20032;-79
2022/04/26 19:22:16;;;;;;;7.45;3.30;;;;;;;;;;5059241;28;20040;-80
2022/04/26 19:24:41;;;;;;;6.32;3.67;;;;;;;;;;5076675;28;20078;-79
2022/04/26 19:27:07;;;;;;;13.52;4.68;;;;;;;;;;5025687;28;20036;-80
2022/04/26 19:29:32;;;;;;;9.48;4.65;;;;;;;;;;5058499;28;20119;-80
2022/04/26 19:31:58;;;;;;;12.10;4.70;;;;;;;;;;5076533;28;20040;-80
2022/04/26 19:34:23;;;;;;;8.80;4.57;;;;;;;;;;5070403;28;20191;-79
2022/04/26 19:36:49;;;;;;;8.20;5.32;;;;;;;;;;5044573;28;20028;-79
2022/04/26 19:39:15;;;;;;;9.98;5.65;;;;;;;;;;5058536;28;20362;-79
2022/04/26 19:41:41;;;;;;;11.95;5.75;;;;;;;;;;5058776;28;20035;-80
2022/04/26 19:44:07;;;;;;;11.50;6.18;;;;;;;;;;5076501;28;20025;-80
2022/04/26 19:46:33;;;;;;;12.75;6.05;;;;;;;;;;5058656;28;20028;-79
2022/04/26 19:48:58;;;;;;;10.90;6.22;;;;;;;;;;5041218;28;20045;-79
2022/04/26 19:51:27;;;;;;;11.05;5.90;;;;;;;;;;5058519;28;20123;-79
2022/04/26 19:53:57;;;;;;;10.02;5.68;;;;;;;;;;5045034;28;20434;-79
2022/04/26 19:56:23;;;;;;;11.45;5.90;;;;;;;;;;5082689;28;20036;-79
2022/04/26 19:58:48;;;;;;;17.83;6.90;;;;;;;;;;5041535;28;20039;-79
2022/04/26 20:01:14;;;;;;;13.23;6.30;;;;;;;;;;5076020;28;20033;-79
2022/04/26 20:03:42;;;;;;;8.70;5.80;;;;;;;;;;5058134;28;20109;-79